Time;durP1;ratioP1;P1;durP2;ratioP2;P2;SDS_P1;SDS_P2;PMS_P1;PMS_P2;Temp;Humidity;BMP_temperature;BMP_pressure;BME280_temperature;BME280_humidity;BME280_pressure;Samples;Min_cycle;Max_cycle;Signal;HPM_P1;HPM_P2
2023/04/05 00:01:21;;;;;;;8.05;4.25;;;5.20;70.90;;;;;;5027607;28;20489;-70
2023/04/05 00:03:47;;;;;;;9.75;3.90;;;5.20;71.00;;;;;;5033825;28;20312;-70
2023/04/05 00:06:15;;;;;;;8.40;5.10;;;5.20;71.10;;;;;;5035836;28;20068;-70
2023/04/05 00:08:43;;;;;;;9.38;4.82;;;5.20;71.10;;;;;;5028836;28;20538;-70
2023/04/05 00:11:09;;;;;;;9.15;4.65;;;5.20;71.10;;;;;;5018807;28;20029;-70
2023/04/05 00:13:34;;;;;;;9.85;5.38;;;5.10;71.20;;;;;;5022103;28;20513;-70
2023/04/05 00:16:00;;;;;;;8.70;4.90;;;5.00;71.30;;;;;;5029169;28;20099;-70
2023/04/05 00:18:26;;;;;;;12.02;5.43;;;5.00;71.50;;;;;;5027626;28;20513;-70
2023/04/05 00:20:52;;;;;;;10.80;6.63;;;5.00;72.10;;;;;;5029566;28;20091;-70
2023/04/05 00:23:19;;;;;;;12.20;6.60;;;5.00;71.60;;;;;;5030096;28;20033;-71
2023/04/05 00:25:46;;;;;;;14.23;7.50;;;5.00;72.20;;;;;;5023714;28;20112;-70
2023/04/05 00:28:12;;;;;;;15.00;7.55;;;5.00;71.70;;;;;;5026829;28;20077;-69
2023/04/05 00:30:38;;;;;;;14.80;7.03;;;4.90;71.50;;;;;;5014666;28;20072;-69
2023/04/05 00:33:04;;;;;;;11.80;6.50;;;4.90;72.10;;;;;;5024682;28;20034;-69
2023/04/05 00:35:30;;;;;;;11.27;5.50;;;4.90;71.60;;;;;;5028993;28;20022;-69
2023/04/05 00:37:55;;;;;;;9.10;5.20;;;4.90;71.70;;;;;;5013884;28;20458;-69
2023/04/05 00:40:22;;;;;;;8.52;4.50;;;4.90;71.80;;;;;;5023165;28;20029;-69
2023/04/05 00:42:48;;;;;;;10.80;6.00;;;4.90;71.90;;;;;;5030959;28;20029;-69
2023/04/05 00:45:13;;;;;;;13.02;6.43;;;4.90;71.90;;;;;;5030136;28;20090;-69
2023/04/05 00:47:43;;;;;;;10.25;5.80;;;4.90;71.90;;;;;;5024077;28;20044;-69
2023/04/05 00:50:10;;;;;;;8.32;4.90;;;4.90;72.00;;;;;;5024310;28;20040;-69
2023/04/05 00:52:39;;;;;;;11.45;6.93;;;4.90;72.00;;;;;;5032466;28;20087;-69
2023/04/05 00:55:06;;;;;;;11.38;6.13;;;4.90;72.10;;;;;;5029808;28;20477;-69
2023/04/05 00:57:38;;;;;;;8.50;5.07;;;4.90;72.20;;;;;;5015067;28;20168;-70
2023/04/05 01:00:09;;;;;;;9.60;6.15;;;4.80;72.10;;;;;;5027151;28;20049;-69
2023/04/05 01:02:44;;;;;;;7.53;4.13;;;4.80;72.20;;;;;;5021348;28;20049;-71
2023/04/05 01:05:28;;;;;;;10.30;5.68;;;4.80;72.40;;;;;;5028935;28;20029;-70
2023/04/05 01:08:06;;;;;;;8.52;4.68;;;4.80;72.50;;;;;;5014314;28;20095;-71
2023/04/05 01:10:38;;;;;;;9.27;4.78;;;4.70;72.50;;;;;;5014403;28;20127;-71
2023/04/05 01:13:05;;;;;;;8.32;4.90;;;4.70;72.50;;;;;;5014427;28;20069;-71
2023/04/05 01:15:31;;;;;;;11.77;5.07;;;4.70;72.60;;;;;;5039907;28;20111;-69
2023/04/05 01:18:00;;;;;;;10.02;4.95;;;4.70;72.70;;;;;;5030879;28;20037;-70
2023/04/05 01:20:31;;;;;;;13.80;4.60;;;4.60;72.60;;;;;;5025515;28;20470;-70
2023/04/05 01:23:36;;;;;;;9.23;4.53;;;4.80;72.80;;;;;;5016661;28;20033;-70
2023/04/05 01:26:42;;;;;;;8.77;4.13;;;4.80;72.80;;;;;;5026521;28;20205;-70
2023/04/05 01:29:45;;;;;;;7.45;4.10;;;4.70;72.80;;;;;;5022154;28;20071;-71
2023/04/05 01:32:14;;;;;;;6.50;4.07;;;4.70;72.80;;;;;;5014469;28;20504;-70
2023/04/05 01:34:47;;;;;;;8.40;5.13;;;4.60;72.80;;;;;;5026859;28;20025;-70
2023/04/05 01:37:16;;;;;;;8.88;5.18;;;4.70;73.00;;;;;;5025362;28;20033;-69
2023/04/05 01:39:43;;;;;;;6.75;4.43;;;4.70;73.10;;;;;;5022929;28;20051;-69
2023/04/05 01:42:09;;;;;;;8.43;4.65;;;4.70;73.20;;;;;;5014772;28;20551;-69
2023/04/05 01:44:35;;;;;;;8.27;4.45;;;4.70;73.20;;;;;;5026460;28;20061;-69
2023/04/05 01:47:00;;;;;;;9.80;4.43;;;4.70;73.20;;;;;;5020727;28;20103;-68
2023/04/05 01:49:26;;;;;;;8.00;3.85;;;4.70;73.30;;;;;;5022660;28;20175;-70
2023/04/05 01:51:51;;;;;;;7.03;5.07;;;4.70;73.40;;;;;;5032076;28;20029;-69
2023/04/05 01:54:17;;;;;;;9.15;4.90;;;4.70;73.50;;;;;;5035121;28;20028;-69
2023/04/05 01:56:43;;;;;;;9.77;4.43;;;4.70;73.40;;;;;;5014542;28;20386;-69
2023/04/05 01:59:09;;;;;;;10.70;6.00;;;4.60;73.40;;;;;;5012818;28;20053;-69
2023/04/05 02:01:34;;;;;;;10.10;5.07;;;4.60;73.60;;;;;;5015143;28;20033;-69
2023/04/05 02:04:00;;;;;;;9.70;4.43;;;4.60;73.70;;;;;;5017761;28;20069;-70
2023/04/05 02:06:26;;;;;;;10.88;5.03;;;4.60;73.80;;;;;;5026194;28;20029;-69
2023/04/05 02:08:52;;;;;;;7.13;3.83;;;4.60;73.80;;;;;;5013664;28;20132;-69
2023/04/05 02:11:17;;;;;;;8.27;5.10;;;4.60;73.80;;;;;;5022580;28;20129;-70
2023/04/05 02:13:47;;;;;;;8.05;4.43;;;4.70;73.90;;;;;;5029893;28;20049;-69
2023/04/05 02:16:12;;;;;;;10.45;4.75;;;4.70;74.00;;;;;;5027106;28;20021;-69
2023/04/05 02:18:38;;;;;;;11.15;4.28;;;4.70;74.00;;;;;;5012335;28;20498;-70
2023/04/05 02:21:06;;;;;;;6.97;3.80;;;4.70;74.00;;;;;;5029277;28;20033;-70
2023/04/05 02:23:33;;;;;;;8.95;3.80;;;4.80;74.10;;;;;;5013710;28;20045;-70
2023/04/05 02:25:59;;;;;;;7.30;3.33;;;4.80;74.10;;;;;;5021033;28;20021;-70
2023/04/05 02:28:28;;;;;;;6.85;3.90;;;4.90;74.10;;;;;;5014456;28;20074;-70
2023/04/05 02:30:54;;;;;;;9.73;4.22;;;4.90;74.10;;;;;;5023149;28;20061;-71
2023/04/05 02:33:21;;;;;;;5.97;3.40;;;5.00;74.20;;;;;;5014584;28;20076;-71
2023/04/05 02:35:48;;;;;;;7.13;3.70;;;5.00;74.10;;;;;;5018246;28;20396;-71
2023/04/05 02:38:14;;;;;;;9.40;3.17;;;5.00;73.90;;;;;;5012691;28;20034;-71
2023/04/05 02:40:40;;;;;;;5.57;2.85;;;5.10;73.90;;;;;;5028500;28;20491;-71
2023/04/05 02:43:06;;;;;;;6.30;3.30;;;5.10;73.80;;;;;;5018982;28;20033;-71
2023/04/05 02:45:32;;;;;;;5.60;3.15;;;5.20;73.80;;;;;;5024005;28;20037;-71
2023/04/05 02:47:57;;;;;;;6.22;3.85;;;5.20;73.80;;;;;;5025089;28;20042;-71
2023/04/05 02:50:23;;;;;;;5.30;3.10;;;5.20;73.70;;;;;;5025985;28;20065;-71
2023/04/05 02:52:49;;;;;;;6.70;3.00;;;5.20;73.70;;;;;;5020014;28;20080;-71
2023/04/05 02:55:15;;;;;;;5.18;2.75;;;5.20;73.80;;;;;;5028297;28;20037;-71
2023/04/05 02:57:42;;;;;;;7.65;3.33;;;5.30;73.90;;;;;;5021928;28;20083;-71
2023/04/05 03:00:10;;;;;;;5.28;3.20;;;5.30;74.00;;;;;;5029109;28;20048;-71
2023/04/05 03:02:37;;;;;;;5.55;3.10;;;5.30;73.90;;;;;;5015150;28;20029;-71
2023/04/05 03:05:03;;;;;;;7.03;4.00;;;5.30;74.00;;;;;;5018893;28;20038;-71
2023/04/05 03:07:29;;;;;;;8.18;3.65;;;5.40;74.20;;;;;;5026560;28;20022;-71
2023/04/05 03:09:55;;;;;;;5.00;3.03;;;5.40;74.20;;;;;;5033248;28;20049;-71
2023/04/05 03:12:21;;;;;;;6.07;3.70;;;5.40;74.30;;;;;;5015772;28;20045;-71
2023/04/05 03:14:47;;;;;;;5.50;3.30;;;5.40;74.40;;;;;;5025743;28;20026;-71
2023/04/05 03:17:13;;;;;;;6.35;3.17;;;5.50;74.50;;;;;;5015867;28;20021;-71
2023/04/05 03:19:38;;;;;;;4.63;2.65;;;5.50;74.60;;;;;;5017001;28;20026;-71
2023/04/05 03:22:04;;;;;;;5.60;3.30;;;5.50;74.60;;;;;;5011719;28;20038;-71
2023/04/05 03:24:30;;;;;;;6.55;3.22;;;5.50;74.60;;;;;;5043284;28;20108;-71
2023/04/05 03:27:01;;;;;;;7.07;3.47;;;5.50;74.70;;;;;;5021096;28;20043;-71
2023/04/05 03:29:26;;;;;;;5.65;2.83;;;5.50;74.70;;;;;;5042591;28;20048;-71
2023/04/05 03:31:52;;;;;;;9.25;3.92;;;5.40;74.80;;;;;;5023234;28;20029;-71
2023/04/05 03:34:18;;;;;;;5.10;3.25;;;5.50;75.00;;;;;;5041316;28;20029;-71
2023/04/05 03:36:44;;;;;;;5.70;3.08;;;5.50;75.10;;;;;;5033055;28;20493;-71
2023/04/05 03:39:11;;;;;;;7.10;4.55;;;5.50;75.20;;;;;;5025399;28;20026;-71
2023/04/05 03:41:38;;;;;;;5.75;3.53;;;5.50;75.40;;;;;;5012471;28;20038;-70
2023/04/05 03:44:04;;;;;;;5.07;3.30;;;5.50;75.60;;;;;;5033213;28;20083;-70
2023/04/05 03:46:30;;;;;;;5.00;3.22;;;5.40;75.60;;;;;;5025162;28;20117;-70
2023/04/05 03:48:57;;;;;;;4.97;3.13;;;5.40;75.70;;;;;;5037253;28;20123;-70
2023/04/05 03:51:22;;;;;;;7.25;3.25;;;5.40;75.90;;;;;;5025059;28;20026;-70
2023/04/05 03:53:49;;;;;;;5.47;3.47;;;5.40;76.00;;;;;;5031649;28;20056;-70
2023/04/05 03:56:15;;;;;;;6.97;3.67;;;5.40;76.10;;;;;;5019958;28;20033;-70
2023/04/05 03:58:41;;;;;;;7.63;3.67;;;5.50;76.20;;;;;;5025319;28;20340;-70
2023/04/05 04:01:07;;;;;;;7.60;3.10;;;5.50;76.30;;;;;;5011150;28;20096;-70
2023/04/05 04:03:32;;;;;;;6.97;3.40;;;5.50;76.40;;;;;;5035003;28;20041;-70
2023/04/05 04:05:58;;;;;;;7.10;3.35;;;5.60;76.60;;;;;;5036937;28;20029;-70
2023/04/05 04:08:25;;;;;;;8.30;4.03;;;5.60;76.70;;;;;;5023966;28;20064;-70
2023/04/05 04:10:50;;;;;;;6.63;3.33;;;5.50;76.70;;;;;;5020504;28;20034;-71
2023/04/05 04:13:18;;;;;;;5.95;3.63;;;5.60;76.80;;;;;;5029014;28;20480;-71
2023/04/05 04:15:44;;;;;;;5.97;3.05;;;5.50;76.80;;;;;;5011383;28;20049;-71
2023/04/05 04:18:10;;;;;;;6.90;3.28;;;5.50;76.90;;;;;;5012774;28;20037;-71
2023/04/05 04:20:39;;;;;;;5.35;3.03;;;5.50;77.00;;;;;;5014160;28;20030;-71
2023/04/05 04:23:08;;;;;;;6.43;3.55;;;5.50;77.10;;;;;;5016006;28;20048;-71
2023/04/05 04:25:37;;;;;;;7.50;3.20;;;5.60;77.70;;;;;;5028425;28;20025;-71
2023/04/05 04:28:06;;;;;;;7.13;3.22;;;5.60;77.20;;;;;;5025445;28;20037;-71
2023/04/05 04:30:33;;;;;;;7.75;3.90;;;5.50;77.30;;;;;;5033746;28;20104;-71
2023/04/05 04:33:02;;;;;;;6.82;3.92;;;5.60;77.50;;;;;;5033165;28;20033;-71
2023/04/05 04:35:29;;;;;;;8.20;3.90;;;5.60;77.50;;;;;;5034044;28;20040;-71
2023/04/05 04:37:58;;;;;;;8.40;3.38;;;5.60;77.60;;;;;;5044904;28;20489;-71
2023/04/05 04:40:46;;;;;;;6.80;4.05;;;5.70;77.80;;;;;;5029212;28;20123;-70
2023/04/05 04:43:15;;;;;;;8.30;3.65;;;5.70;77.70;;;;;;5032824;28;20028;-70
2023/04/05 04:45:45;;;;;;;11.30;3.97;;;5.70;78.10;;;;;;5018696;28;20026;-70
2023/04/05 04:48:13;;;;;;;5.07;3.78;;;5.70;77.70;;;;;;5030076;28;20037;-70
2023/04/05 04:50:39;;;;;;;5.47;3.28;;;5.80;77.80;;;;;;5034751;28;20025;-69
2023/04/05 04:53:05;;;;;;;6.45;3.47;;;5.80;77.70;;;;;;5014338;28;20049;-70
2023/04/05 04:55:32;;;;;;;5.32;3.53;;;5.70;77.70;;;;;;5042897;28;20078;-69
2023/04/05 04:57:58;;;;;;;5.35;3.17;;;5.70;77.70;;;;;;5026099;28;20040;-69
2023/04/05 05:00:25;;;;;;;5.28;3.17;;;5.60;77.80;;;;;;5031560;28;20041;-70
2023/04/05 05:02:55;;;;;;;5.93;3.20;;;5.60;77.80;;;;;;5026282;28;20053;-70
2023/04/05 05:05:23;;;;;;;5.18;2.63;;;5.60;78.00;;;;;;5027021;28;20029;-70
2023/04/05 05:07:49;;;;;;;5.60;2.90;;;5.60;78.00;;;;;;5020291;28;20037;-69
2023/04/05 05:10:15;;;;;;;6.88;3.08;;;5.70;78.00;;;;;;5017357;28;20038;-71
2023/04/05 05:12:41;;;;;;;7.18;3.22;;;5.60;78.00;;;;;;5022712;28;20530;-70
2023/04/05 05:15:07;;;;;;;4.70;2.65;;;5.70;78.20;;;;;;5031605;28;20120;-70
2023/04/05 05:17:34;;;;;;;4.97;2.90;;;5.70;78.10;;;;;;5027214;28;20036;-69
2023/04/05 05:20:00;;;;;;;7.68;3.38;;;5.70;78.00;;;;;;5023003;28;20029;-69
2023/04/05 05:22:26;;;;;;;6.97;3.25;;;5.70;78.10;;;;;;5019871;28;20037;-70
2023/04/05 05:24:52;;;;;;;4.93;3.17;;;5.70;78.10;;;;;;5024110;28;20084;-71
2023/04/05 05:27:18;;;;;;;6.10;3.35;;;5.70;78.10;;;;;;5013361;28;20064;-70
2023/04/05 05:29:43;;;;;;;4.28;2.88;;;5.70;78.10;;;;;;5016423;28;20139;-70
2023/04/05 05:32:14;;;;;;;6.35;3.00;;;5.70;78.00;;;;;;5027703;28;20029;-69
2023/04/05 05:34:40;;;;;;;5.25;2.90;;;5.80;78.10;;;;;;5013147;28;20117;-69
2023/04/05 05:37:08;;;;;;;6.70;3.47;;;5.80;78.00;;;;;;5016630;28;20029;-69
2023/04/05 05:39:34;;;;;;;6.28;3.35;;;5.80;77.90;;;;;;5021216;28;20033;-69
2023/04/05 05:41:59;;;;;;;6.55;2.95;;;5.80;77.90;;;;;;5031172;28;20515;-70
2023/04/05 05:44:25;;;;;;;6.35;3.60;;;5.90;78.00;;;;;;5013565;28;20034;-69
2023/04/05 05:46:51;;;;;;;5.90;3.10;;;5.80;77.80;;;;;;5039207;28;20033;-70
2023/04/05 05:49:16;;;;;;;4.90;2.80;;;5.80;78.00;;;;;;5027088;28;20446;-70
2023/04/05 05:51:42;;;;;;;6.43;3.00;;;5.80;78.00;;;;;;5039217;28;20024;-70
2023/04/05 05:54:07;;;;;;;7.75;2.90;;;5.90;78.10;;;;;;5012937;28;20441;-70
2023/04/05 05:56:33;;;;;;;6.50;3.38;;;5.90;78.10;;;;;;5029056;28;20025;-70
2023/04/05 05:59:00;;;;;;;5.25;3.22;;;5.90;78.00;;;;;;5012573;28;20117;-71
2023/04/05 06:01:26;;;;;;;7.07;3.63;;;5.90;77.80;;;;;;5022715;28;20033;-70
2023/04/05 06:03:53;;;;;;;7.03;3.88;;;5.90;77.90;;;;;;5020545;28;20469;-70
2023/04/05 06:06:19;;;;;;;8.25;3.78;;;6.00;78.00;;;;;;5042713;28;20056;-70
2023/04/05 06:08:46;;;;;;;9.68;4.55;;;6.10;78.10;;;;;;5029274;28;20064;-70
2023/04/05 06:11:22;;;;;;;6.75;3.70;;;6.20;77.90;;;;;;5018962;28;20030;-70
2023/04/05 06:13:49;;;;;;;9.90;3.35;;;6.30;78.00;;;;;;5018730;28;20030;-70
2023/04/05 06:16:15;;;;;;;7.53;4.03;;;6.40;78.10;;;;;;5037352;28;20059;-70
2023/04/05 06:18:40;;;;;;;8.30;3.63;;;6.40;77.80;;;;;;5019142;28;20228;-71
2023/04/05 06:21:06;;;;;;;7.28;4.32;;;6.40;77.60;;;;;;5023598;28;21171;-71
2023/04/05 06:23:32;;;;;;;6.78;4.13;;;6.40;77.20;;;;;;5029310;28;20040;-71
2023/04/05 06:25:58;;;;;;;9.55;3.97;;;6.40;76.80;;;;;;5030507;28;20043;-71
2023/04/05 06:28:24;;;;;;;8.55;3.60;;;6.30;76.90;;;;;;5016743;28;20034;-71
2023/04/05 06:30:49;;;;;;;8.50;3.45;;;6.30;77.00;;;;;;5026998;28;20029;-71
2023/04/05 06:33:15;;;;;;;11.88;4.25;;;6.30;77.10;;;;;;5024713;28;20029;-72
2023/04/05 06:35:41;;;;;;;7.80;3.72;;;6.30;77.20;;;;;;5035233;28;20025;-70
2023/04/05 06:38:06;;;;;;;9.65;4.82;;;6.30;77.10;;;;;;5039145;28;20037;-71
2023/04/05 06:40:32;;;;;;;6.63;3.60;;;6.40;77.20;;;;;;5015383;28;20073;-71
2023/04/05 06:42:58;;;;;;;7.15;3.80;;;6.50;77.40;;;;;;5018867;28;20025;-71
2023/04/05 06:45:23;;;;;;;7.13;4.32;;;6.40;77.30;;;;;;5020646;28;20080;-71
2023/04/05 06:47:49;;;;;;;9.80;4.60;;;6.50;77.50;;;;;;5027338;28;20481;-71
2023/04/05 06:50:15;;;;;;;10.55;4.60;;;6.50;77.60;;;;;;5023464;28;20037;-71
2023/04/05 06:52:40;;;;;;;6.75;3.80;;;6.60;77.50;;;;;;5018716;28;20037;-70
2023/04/05 06:55:07;;;;;;;7.35;3.85;;;6.60;77.50;;;;;;5011227;28;20033;-70
2023/04/05 06:57:35;;;;;;;8.57;4.15;;;6.60;77.50;;;;;;5024279;28;20565;-71
2023/04/05 07:00:00;;;;;;;7.50;4.30;;;6.60;77.50;;;;;;5021927;28;20504;-71
2023/04/05 07:02:26;;;;;;;6.38;4.20;;;6.60;77.70;;;;;;5026188;28;20022;-70
2023/04/05 07:04:52;;;;;;;7.05;4.20;;;6.60;77.70;;;;;;5020340;28;20041;-70
2023/04/05 07:07:17;;;;;;;8.18;4.28;;;6.60;77.80;;;;;;5025271;28;20481;-70
2023/04/05 07:09:43;;;;;;;6.72;4.40;;;6.60;78.20;;;;;;5019021;28;20029;-70
2023/04/05 07:12:09;;;;;;;9.95;4.50;;;6.60;78.40;;;;;;5014910;28;20030;-70
2023/04/05 07:14:37;;;;;;;8.55;3.97;;;6.50;78.80;;;;;;5009961;28;20029;-70
2023/04/05 07:17:07;;;;;;;10.00;4.57;;;6.60;79.10;;;;;;5017557;28;20493;-70
2023/04/05 07:19:33;;;;;;;7.05;4.28;;;6.70;79.40;;;;;;5011701;28;20386;-69
2023/04/05 07:21:59;;;;;;;9.05;4.43;;;6.80;79.50;;;;;;5031263;28;20083;-70
2023/04/05 07:24:24;;;;;;;7.90;4.88;;;7.00;79.70;;;;;;5030531;28;20029;-70
2023/04/05 07:26:50;;;;;;;10.88;5.18;;;7.00;79.80;;;;;;5027864;28;20036;-70
2023/04/05 07:29:16;;;;;;;13.60;5.80;;;7.30;80.00;;;;;;5046675;28;20041;-70
2023/04/05 07:31:42;;;;;;;11.05;5.35;;;7.40;80.00;;;;;;5028417;28;20045;-70
2023/04/05 07:34:07;;;;;;;10.43;5.30;;;7.50;80.00;;;;;;5036617;28;20506;-70
2023/04/05 07:36:33;;;;;;;8.48;5.20;;;7.60;79.70;;;;;;5037841;28;20029;-69
2023/04/05 07:39:00;;;;;;;7.75;4.72;;;7.70;79.20;;;;;;5016510;28;20058;-70
2023/04/05 07:41:31;;;;;;;8.23;4.53;;;7.70;78.50;;;;;;5023572;28;20036;-70
2023/04/05 07:43:57;;;;;;;6.80;4.40;;;7.60;78.50;;;;;;5022704;28;20029;-69
2023/04/05 07:46:23;;;;;;;6.78;4.15;;;7.60;78.40;;;;;;5023752;28;20029;-69
2023/04/05 07:48:49;;;;;;;10.20;5.35;;;7.60;78.50;;;;;;5032349;28;20129;-69
2023/04/05 07:51:14;;;;;;;13.23;5.72;;;7.40;78.30;;;;;;5020451;28;20180;-70
2023/04/05 07:53:41;;;;;;;6.68;4.03;;;7.30;78.90;;;;;;5014125;28;20022;-69
2023/04/05 07:56:09;;;;;;;10.05;4.60;;;7.20;78.50;;;;;;5025768;28;20038;-70
2023/04/05 07:58:38;;;;;;;7.43;4.10;;;7.00;78.50;;;;;;5035855;28;20025;-70
2023/04/05 08:01:04;;;;;;;6.63;4.55;;;6.90;78.50;;;;;;5021335;28;20547;-70
2023/04/05 08:03:31;;;;;;;8.02;4.45;;;6.90;78.70;;;;;;5046264;28;20058;-70
2023/04/05 08:05:57;;;;;;;6.45;4.32;;;6.90;78.80;;;;;;5027592;28;20148;-70
2023/04/05 08:08:25;;;;;;;7.72;4.20;;;6.90;79.00;;;;;;5027765;28;20315;-70
2023/04/05 08:10:51;;;;;;;5.72;3.70;;;6.80;79.10;;;;;;5026585;28;20033;-70
2023/04/05 08:13:17;;;;;;;7.43;4.63;;;6.80;79.40;;;;;;5031882;28;20088;-70
2023/04/05 08:15:42;;;;;;;10.75;4.70;;;6.80;79.50;;;;;;5031662;28;20035;-70
2023/04/05 08:18:08;;;;;;;8.00;4.40;;;6.90;79.70;;;;;;5020347;28;20029;-70
2023/04/05 08:20:37;;;;;;;7.35;4.60;;;6.90;79.70;;;;;;5021804;28;20362;-70
2023/04/05 08:23:04;;;;;;;7.68;4.22;;;6.90;79.60;;;;;;5021078;28;20410;-70
2023/04/05 08:25:30;;;;;;;7.60;3.50;;;6.90;79.10;;;;;;5035663;28;20116;-71
2023/04/05 08:27:56;;;;;;;5.72;3.90;;;7.00;79.00;;;;;;5037122;28;20519;-70
2023/04/05 08:30:22;;;;;;;6.00;3.53;;;7.00;78.90;;;;;;5038728;28;20038;-70
2023/04/05 08:32:48;;;;;;;6.65;4.15;;;7.10;78.90;;;;;;5029123;28;20120;-71
2023/04/05 08:35:14;;;;;;;6.93;4.10;;;7.00;78.40;;;;;;5024174;28;20117;-71
2023/04/05 08:37:40;;;;;;;12.13;4.88;;;7.00;78.40;;;;;;5038894;28;20109;-70
2023/04/05 08:40:07;;;;;;;7.10;4.07;;;7.00;78.30;;;;;;5029066;28;20108;-70
2023/04/05 08:42:45;;;;;;;6.05;3.40;;;7.00;78.30;;;;;;5019633;28;20072;-70
2023/04/05 08:45:16;;;;;;;6.07;3.60;;;7.00;78.50;;;;;;5026125;28;20168;-70
2023/04/05 08:47:42;;;;;;;5.82;3.45;;;7.00;78.90;;;;;;5031195;28;20481;-70
2023/04/05 08:50:09;;;;;;;6.50;3.95;;;7.10;78.40;;;;;;5030163;28;20087;-69
2023/04/05 08:52:38;;;;;;;7.40;4.10;;;7.20;78.40;;;;;;5030701;28;20026;-70
2023/04/05 08:55:05;;;;;;;7.40;3.17;;;7.20;78.10;;;;;;5026115;28;20033;-70
2023/04/05 08:57:32;;;;;;;8.13;3.90;;;7.20;78.30;;;;;;5021954;28;21074;-71
2023/04/05 09:00:01;;;;;;;5.63;3.53;;;7.20;78.50;;;;;;5024407;28;20057;-70
2023/04/05 09:02:28;;;;;;;5.57;3.78;;;7.20;78.50;;;;;;5023048;28;20038;-70
2023/04/05 09:04:55;;;;;;;8.15;3.72;;;7.30;78.50;;;;;;5029745;28;20097;-70
2023/04/05 09:07:21;;;;;;;7.05;3.63;;;7.50;78.50;;;;;;5040026;28;20060;-69
2023/04/05 09:09:51;;;;;;;6.63;3.80;;;7.50;78.20;;;;;;5019487;28;20076;-71
2023/04/05 09:12:20;;;;;;;10.27;4.35;;;7.60;78.10;;;;;;5018507;28;20322;-70
2023/04/05 09:14:47;;;;;;;6.60;3.45;;;7.70;77.80;;;;;;5026389;28;20236;-70
2023/04/05 09:17:16;;;;;;;7.68;3.70;;;7.70;77.80;;;;;;5032194;28;20112;-70
2023/04/05 09:19:42;;;;;;;8.35;4.07;;;7.80;77.90;;;;;;5030292;28;20026;-70
2023/04/05 09:22:09;;;;;;;5.82;3.80;;;7.80;77.40;;;;;;5019026;28;20038;-69
2023/04/05 09:24:35;;;;;;;6.93;3.58;;;7.80;77.40;;;;;;5026050;28;20556;-69
2023/04/05 09:27:12;;;;;;;7.40;3.90;;;7.90;77.60;;;;;;5035694;28;20037;-69
2023/04/05 09:29:40;;;;;;;6.32;3.65;;;7.90;77.30;;;;;;5017205;28;20041;-70
2023/04/05 09:32:08;;;;;;;17.83;5.63;;;7.80;76.80;;;;;;5016824;28;20456;-70
2023/04/05 09:34:37;;;;;;;8.85;3.50;;;7.80;77.10;;;;;;5021648;28;20037;-70
2023/04/05 09:37:15;;;;;;;5.72;3.50;;;7.80;77.30;;;;;;5039498;28;20029;-69
2023/04/05 09:39:41;;;;;;;4.68;3.00;;;7.90;76.90;;;;;;5026963;28;20029;-70
2023/04/05 09:42:18;;;;;;;9.73;4.35;;;8.00;77.40;;;;;;5026512;28;20029;-69
2023/04/05 09:44:54;;;;;;;5.55;3.65;;;8.10;77.10;;;;;;5032713;28;20048;-70
2023/04/05 09:47:22;;;;;;;6.65;3.33;;;8.20;76.90;;;;;;5028958;28;20405;-71
2023/04/05 09:49:47;;;;;;;7.25;3.92;;;8.30;76.90;;;;;;5031281;28;20041;-71
2023/04/05 09:52:25;;;;;;;6.25;3.55;;;8.40;76.70;;;;;;5034594;28;20029;-71
2023/04/05 09:54:55;;;;;;;7.75;3.88;;;8.50;76.50;;;;;;5017722;28;20026;-71
2023/04/05 09:57:22;;;;;;;5.55;3.30;;;8.70;76.80;;;;;;5030083;28;20040;-70
2023/04/05 09:59:48;;;;;;;7.68;3.85;;;8.80;77.10;;;;;;5009741;28;20131;-70
2023/04/05 10:02:15;;;;;;;5.20;3.15;;;8.80;75.80;;;;;;5027071;28;20072;-70
2023/04/05 10:04:42;;;;;;;4.93;2.80;;;8.90;75.30;;;;;;5033676;28;20026;-70
2023/04/05 10:07:10;;;;;;;5.30;3.72;;;8.90;75.20;;;;;;5042477;28;20041;-70
2023/04/05 10:09:35;;;;;;;8.32;3.78;;;8.80;73.90;;;;;;5038842;28;20051;-69
2023/04/05 10:12:02;;;;;;;9.90;3.85;;;8.70;74.00;;;;;;5013761;28;20030;-69
2023/04/05 10:14:28;;;;;;;6.07;3.28;;;8.80;74.00;;;;;;5030088;28;20044;-69
2023/04/05 10:18:01;;;;;;;6.78;4.07;;;8.80;73.60;;;;;;5025379;28;20021;-70
2023/04/05 10:20:28;;;;;;;5.65;3.80;;;8.80;73.50;;;;;;5002296;28;20044;-70
2023/04/05 10:23:18;;;;;;;7.88;3.20;;;8.70;73.10;;;;;;5029849;28;20025;-70
2023/04/05 10:25:52;;;;;;;5.80;2.78;;;8.80;73.50;;;;;;5012235;28;20045;-69
2023/04/05 10:28:26;;;;;;;5.90;3.30;;;9.10;73.70;;;;;;5011829;28;20061;-70
2023/04/05 10:31:04;;;;;;;6.55;3.30;;;9.30;73.60;;;;;;5024096;28;20037;-69
2023/04/05 10:33:38;;;;;;;6.78;3.17;;;9.50;73.50;;;;;;5019892;28;20033;-69
2023/04/05 10:36:19;;;;;;;4.85;3.25;;;9.60;72.80;;;;;;5013003;28;20030;-68
2023/04/05 10:39:05;;;;;;;5.95;3.42;;;9.50;70.90;;;;;;5011704;28;20055;-68
2023/04/05 10:41:39;;;;;;;4.53;3.03;;;9.40;71.60;;;;;;5017405;28;20497;-70
2023/04/05 10:44:08;;;;;;;9.23;3.23;;;9.40;71.70;;;;;;5025013;28;20033;-69
2023/04/05 10:46:35;;;;;;;5.28;3.08;;;9.30;72.00;;;;;;5029107;28;20292;-69
2023/04/05 10:49:22;;;;;;;6.47;4.00;;;9.40;72.50;;;;;;5020716;28;20047;-69
2023/04/05 10:51:49;;;;;;;5.88;3.13;;;9.30;72.00;;;;;;5018435;28;20022;-69
2023/04/05 10:54:18;;;;;;;8.27;3.53;;;9.30;72.00;;;;;;5031580;28;20540;-70
2023/04/05 10:56:44;;;;;;;5.35;3.17;;;9.30;72.00;;;;;;5013949;28;20362;-69
2023/04/05 10:59:12;;;;;;;6.95;3.42;;;9.20;72.00;;;;;;5035604;28;20038;-69
2023/04/05 11:01:39;;;;;;;7.68;3.65;;;9.30;72.20;;;;;;5026787;28;20060;-69
2023/04/05 11:04:12;;;;;;;5.78;3.35;;;9.30;72.30;;;;;;5027124;28;20504;-68
2023/04/05 11:06:38;;;;;;;5.90;3.67;;;9.30;72.20;;;;;;5025835;28;20167;-69
2023/04/05 11:09:15;;;;;;;6.22;3.33;;;9.30;72.30;;;;;;5022029;28;20459;-69
2023/04/05 11:11:48;;;;;;;4.60;2.95;;;9.40;72.30;;;;;;5021010;28;20477;-69
2023/04/05 11:14:18;;;;;;;4.20;3.00;;;9.40;71.70;;;;;;5029762;28;20136;-69
2023/04/05 11:16:47;;;;;;;6.00;3.33;;;9.40;71.90;;;;;;5017781;28;20064;-69
2023/04/05 11:19:15;;;;;;;5.45;3.33;;;9.40;71.40;;;;;;5018323;28;20025;-69
2023/04/05 11:21:43;;;;;;;5.78;3.33;;;9.40;71.40;;;;;;5022660;28;20104;-69
2023/04/05 11:24:15;;;;;;;6.07;3.35;;;9.40;71.20;;;;;;5029657;28;20250;-69
2023/04/05 11:26:47;;;;;;;5.78;2.83;;;9.30;71.10;;;;;;5028891;28;20033;-70
2023/04/05 11:29:14;;;;;;;4.55;3.17;;;9.30;71.20;;;;;;5019609;28;20033;-70
2023/04/05 11:32:05;;;;;;;6.10;3.60;;;9.30;71.40;;;;;;5017597;28;20020;-70
2023/04/05 11:34:35;;;;;;;4.72;2.92;;;9.40;71.80;;;;;;5026226;28;20029;-69
2023/04/05 11:37:00;;;;;;;5.00;3.50;;;9.50;71.90;;;;;;5020293;28;20026;-69
2023/04/05 11:39:27;;;;;;;6.03;3.33;;;9.50;71.60;;;;;;5028131;28;20022;-69
2023/04/05 11:42:08;;;;;;;5.63;3.17;;;9.60;71.80;;;;;;5025490;28;20022;-69
2023/04/05 11:44:45;;;;;;;4.85;3.25;;;9.80;71.50;;;;;;5033801;28;20362;-70
2023/04/05 11:47:12;;;;;;;5.15;3.20;;;9.70;71.10;;;;;;5017232;28;20029;-69
2023/04/05 11:49:38;;;;;;;4.95;3.45;;;9.70;71.20;;;;;;5021734;28;20133;-69
2023/04/05 11:52:16;;;;;;;4.22;2.75;;;9.60;71.20;;;;;;5013753;28;20496;-69
2023/04/05 11:54:45;;;;;;;4.55;2.90;;;9.60;71.50;;;;;;5036686;28;20511;-69
2023/04/05 11:57:21;;;;;;;4.90;3.00;;;9.50;71.70;;;;;;5021060;28;20028;-70
2023/04/05 11:59:50;;;;;;;4.63;3.45;;;9.60;71.70;;;;;;5022041;28;20049;-70
2023/04/05 12:02:17;;;;;;;5.38;2.83;;;9.50;71.80;;;;;;5019029;28;20062;-70
2023/04/05 12:04:42;;;;;;;4.35;3.08;;;9.40;72.00;;;;;;5025407;28;20108;-69
2023/04/05 12:07:09;;;;;;;6.82;3.38;;;9.30;71.90;;;;;;5025832;28;20457;-70
2023/04/05 12:09:35;;;;;;;5.10;3.17;;;9.30;72.30;;;;;;5028780;28;20042;-70
2023/04/05 12:12:01;;;;;;;4.93;3.20;;;9.20;72.40;;;;;;5012879;28;20491;-70
2023/04/05 12:14:27;;;;;;;7.22;3.50;;;9.30;72.50;;;;;;5029173;28;20060;-70
2023/04/05 12:16:52;;;;;;;4.70;3.10;;;9.20;72.60;;;;;;5034182;28;20029;-68
2023/04/05 12:19:21;;;;;;;6.20;3.15;;;9.30;72.80;;;;;;5011158;28;20076;-69
2023/04/05 12:21:47;;;;;;;4.85;2.80;;;9.40;72.20;;;;;;5019797;28;20136;-69
2023/04/05 12:24:12;;;;;;;8.93;3.15;;;9.30;71.90;;;;;;5029190;28;20472;-69
2023/04/05 12:26:39;;;;;;;4.85;2.90;;;9.40;71.60;;;;;;5022456;28;20025;-69
2023/04/05 12:29:04;;;;;;;4.40;3.00;;;9.30;71.50;;;;;;5032002;28;20048;-69
2023/04/05 12:31:44;;;;;;;9.85;3.55;;;9.30;71.80;;;;;;5025612;28;20017;-69
2023/04/05 12:34:11;;;;;;;5.25;2.72;;;9.40;72.50;;;;;;5024271;28;20055;-68
2023/04/05 12:36:38;;;;;;;4.43;2.80;;;9.30;72.80;;;;;;5023813;28;20034;-68
2023/04/05 12:39:09;;;;;;;4.90;3.03;;;9.30;72.20;;;;;;5015651;28;20034;-69
2023/04/05 12:41:36;;;;;;;5.97;3.50;;;9.30;72.30;;;;;;5035329;28;20112;-69
2023/04/05 12:44:10;;;;;;;4.75;3.00;;;9.30;72.30;;;;;;5030663;28;20075;-68
2023/04/05 12:46:42;;;;;;;6.25;2.97;;;9.30;72.50;;;;;;5026423;28;20112;-69
2023/04/05 12:49:15;;;;;;;4.60;3.00;;;9.40;72.60;;;;;;5038956;28;20480;-69
2023/04/05 12:51:42;;;;;;;7.32;2.70;;;9.40;72.40;;;;;;5041185;28;20079;-69
2023/04/05 12:54:12;;;;;;;4.75;3.00;;;9.50;72.30;;;;;;5047426;28;20519;-69
2023/04/05 12:56:37;;;;;;;4.57;3.28;;;9.60;72.40;;;;;;5030489;28;20033;-70
2023/04/05 12:59:06;;;;;;;5.10;2.55;;;9.70;72.20;;;;;;5021780;28;20022;-70
2023/04/05 13:01:32;;;;;;;3.72;2.50;;;9.80;72.20;;;;;;5028723;28;20049;-70